Time;durP1;ratioP1;P1;durP2;ratioP2;P2;SDS_P1;SDS_P2;PMS_P1;PMS_P2;Temp;Humidity;BMP_temperature;BMP_pressure;BME280_temperature;BME280_humidity;BME280_pressure;Samples;Min_cycle;Max_cycle;Signal;HPM_P1;HPM_P2
2022/12/19 00:01:59;;;;;;;73.17;54.13;;;;;;;;;;5075969;28;20224;-84
2022/12/19 00:04:27;;;;;;;84.30;58.70;;;;;;;;;;5064193;28;20238;-83
2022/12/19 00:06:58;;;;;;;80.93;69.53;;;;;;;;;;5076820;28;20193;-83
2022/12/19 00:09:26;;;;;;;86.90;74.97;;;;;;;;;;5075858;28;20279;-83
2022/12/19 00:11:54;;;;;;;88.87;78.60;;;;;;;;;;5093773;28;20254;-83
2022/12/19 00:14:24;;;;;;;74.70;56.73;;;;;;;;;;5076524;28;20217;-83
2022/12/19 00:16:53;;;;;;;86.23;73.77;;;;;;;;;;5074864;28;20197;-83
2022/12/19 00:19:22;;;;;;;83.63;68.80;;;;;;;;;;5094282;28;20201;-82
2022/12/19 00:21:50;;;;;;;84.33;68.00;;;;;;;;;;5076704;28;20198;-83
2022/12/19 00:24:19;;;;;;;90.43;75.67;;;;;;;;;;5075246;28;20283;-82
2022/12/19 00:26:49;;;;;;;86.00;66.37;;;;;;;;;;5093986;28;20199;-83
2022/12/19 00:29:17;;;;;;;76.70;61.63;;;;;;;;;;5094123;28;20204;-82
2022/12/19 00:31:47;;;;;;;88.63;61.43;;;;;;;;;;5065274;28;20191;-82
2022/12/19 00:34:16;;;;;;;87.20;54.27;;;;;;;;;;5064937;28;20214;-82
2022/12/19 00:36:44;;;;;;;61.73;36.03;;;;;;;;;;5075859;28;21175;-81
2022/12/19 00:39:13;;;;;;;83.30;66.07;;;;;;;;;;5067051;28;20231;-83
2022/12/19 00:41:41;;;;;;;80.03;64.30;;;;;;;;;;5060835;28;20294;-82
2022/12/19 00:44:11;;;;;;;95.30;78.13;;;;;;;;;;5076383;28;20312;-82
2022/12/19 00:46:41;;;;;;;92.93;79.03;;;;;;;;;;5092209;28;20207;-82
2022/12/19 00:49:10;;;;;;;90.27;66.30;;;;;;;;;;5075981;28;20228;-82
2022/12/19 00:51:39;;;;;;;88.47;72.60;;;;;;;;;;5076468;28;20204;-82
2022/12/19 00:54:07;;;;;;;87.33;62.40;;;;;;;;;;5067330;28;20290;-82
2022/12/19 00:56:36;;;;;;;85.70;66.67;;;;;;;;;;5093234;28;20209;-81
2022/12/19 00:59:06;;;;;;;93.23;83.13;;;;;;;;;;5081394;28;20202;-82
2022/12/19 01:01:35;;;;;;;87.60;62.90;;;;;;;;;;5074009;28;20247;-82
2022/12/19 01:04:05;;;;;;;95.97;74.10;;;;;;;;;;5069761;28;20221;-82
2022/12/19 01:06:55;;;;;;;95.53;70.53;;;;;;;;;;5084151;28;20194;-82
2022/12/19 01:09:29;;;;;;;95.17;67.10;;;;;;;;;;5071154;28;20257;-82
2022/12/19 01:14:43;;;;;;;87.87;56.33;;;;;;;;;;5085638;28;20227;-81
2022/12/19 01:17:12;;;;;;;100.83;88.93;;;;;;;;;;5071204;28;20201;-81
2022/12/19 01:19:40;;;;;;;95.93;77.50;;;;;;;;;;5093431;28;20207;-82
2022/12/19 01:22:13;;;;;;;90.37;65.90;;;;;;;;;;5059390;28;20306;-82
2022/12/19 01:24:41;;;;;;;104.13;71.53;;;;;;;;;;5064003;28;20234;-82
2022/12/19 01:27:10;;;;;;;82.80;52.83;;;;;;;;;;5070999;28;20202;-81
2022/12/19 01:29:38;;;;;;;89.17;74.57;;;;;;;;;;5093222;28;20193;-81
2022/12/19 01:32:19;;;;;;;81.53;57.93;;;;;;;;;;5078753;28;20192;-81
2022/12/19 01:34:48;;;;;;;82.40;53.63;;;;;;;;;;5075050;28;20293;-82
2022/12/19 01:37:18;;;;;;;78.80;54.03;;;;;;;;;;5079983;28;20199;-82
2022/12/19 01:39:46;;;;;;;82.07;55.33;;;;;;;;;;5075011;28;20222;-82
2022/12/19 01:42:16;;;;;;;89.70;64.90;;;;;;;;;;5073155;28;20254;-81
2022/12/19 01:45:05;;;;;;;75.73;51.20;;;;;;;;;;5072815;28;20274;-81
2022/12/19 01:47:34;;;;;;;86.93;72.27;;;;;;;;;;5066253;28;20213;-82
2022/12/19 01:50:03;;;;;;;73.53;54.97;;;;;;;;;;5074771;28;20264;-82
2022/12/19 01:52:33;;;;;;;78.67;56.17;;;;;;;;;;5092339;28;20212;-82
2022/12/19 01:55:01;;;;;;;58.50;40.73;;;;;;;;;;5068734;28;20306;-82
2022/12/19 01:57:30;;;;;;;70.87;51.77;;;;;;;;;;5069150;28;20200;-82
2022/12/19 02:00:03;;;;;;;70.30;56.30;;;;;;;;;;5072789;28;20203;-82
2022/12/19 02:02:33;;;;;;;87.03;69.20;;;;;;;;;;5069613;28;20283;-82
2022/12/19 02:05:01;;;;;;;81.93;59.87;;;;;;;;;;5074219;28;20256;-82
2022/12/19 02:07:30;;;;;;;87.37;64.40;;;;;;;;;;5074950;28;20292;-82
2022/12/19 02:10:00;;;;;;;83.93;67.13;;;;;;;;;;5065816;28;20299;-82
2022/12/19 02:12:31;;;;;;;89.20;59.50;;;;;;;;;;5088869;28;20207;-82
2022/12/19 02:15:01;;;;;;;76.20;57.90;;;;;;;;;;5066859;28;20209;-82
2022/12/19 02:17:35;;;;;;;87.03;60.83;;;;;;;;;;5074439;28;20201;-82
2022/12/19 02:20:13;;;;;;;91.83;80.90;;;;;;;;;;5091507;28;20201;-82
2022/12/19 02:22:47;;;;;;;86.77;59.47;;;;;;;;;;5079691;28;20189;-82
2022/12/19 02:25:34;;;;;;;90.70;65.47;;;;;;;;;;5072481;28;20241;-82
2022/12/19 02:28:13;;;;;;;84.87;56.37;;;;;;;;;;5066555;28;20216;-83
2022/12/19 02:30:47;;;;;;;94.17;68.13;;;;;;;;;;5092679;28;20194;-82
2022/12/19 02:33:18;;;;;;;89.93;68.87;;;;;;;;;;5073165;28;20206;-82
2022/12/19 02:35:52;;;;;;;67.03;41.70;;;;;;;;;;5074784;28;20297;-82
2022/12/19 02:38:23;;;;;;;79.03;56.90;;;;;;;;;;5074865;28;20214;-82
2022/12/19 02:40:55;;;;;;;86.97;70.37;;;;;;;;;;5077061;28;20214;-82
2022/12/19 02:43:24;;;;;;;80.07;53.10;;;;;;;;;;5078189;28;20204;-82
2022/12/19 02:45:54;;;;;;;79.77;66.57;;;;;;;;;;5096067;28;20195;-82
2022/12/19 02:48:23;;;;;;;86.43;59.20;;;;;;;;;;5077490;28;20204;-82
2022/12/19 02:50:51;;;;;;;70.27;51.50;;;;;;;;;;5078188;28;20211;-81
2022/12/19 02:53:19;;;;;;;79.50;52.83;;;;;;;;;;5077130;28;20218;-82
2022/12/19 02:55:59;;;;;;;75.17;55.50;;;;;;;;;;5095465;28;20224;-83
2022/12/19 02:58:47;;;;;;;78.40;59.13;;;;;;;;;;5070274;28;20262;-83
2022/12/19 03:01:24;;;;;;;76.83;63.60;;;;;;;;;;5092138;28;20203;-82
2022/12/19 03:03:57;;;;;;;76.03;52.97;;;;;;;;;;5076877;28;20378;-83
2022/12/19 03:06:26;;;;;;;73.90;63.90;;;;;;;;;;5065078;28;20245;-81
2022/12/19 03:08:59;;;;;;;75.13;50.97;;;;;;;;;;5064046;28;20208;-83
2022/12/19 03:11:30;;;;;;;74.97;54.43;;;;;;;;;;5069218;28;20208;-83
2022/12/19 03:13:59;;;;;;;78.47;58.23;;;;;;;;;;5058079;28;20200;-83
2022/12/19 03:16:29;;;;;;;74.13;53.27;;;;;;;;;;5084949;28;20212;-83
2022/12/19 03:18:58;;;;;;;73.73;46.80;;;;;;;;;;5076685;28;20211;-83
2022/12/19 03:21:29;;;;;;;77.93;60.37;;;;;;;;;;5076768;28;20196;-83
2022/12/19 03:23:58;;;;;;;74.30;56.50;;;;;;;;;;5059975;28;20230;-83
2022/12/19 03:26:29;;;;;;;79.37;53.40;;;;;;;;;;5068448;28;20289;-83
2022/12/19 03:28:59;;;;;;;67.47;46.60;;;;;;;;;;5076626;28;20210;-83
2022/12/19 03:31:29;;;;;;;78.87;55.53;;;;;;;;;;5077550;28;20220;-83
2022/12/19 03:34:00;;;;;;;86.00;57.30;;;;;;;;;;5071236;28;20208;-83
2022/12/19 03:36:31;;;;;;;82.13;59.83;;;;;;;;;;5093435;28;20302;-83
2022/12/19 03:39:00;;;;;;;72.93;48.13;;;;;;;;;;5065773;28;20222;-83
2022/12/19 03:44:16;;;;;;;78.03;60.10;;;;;;;;;;5066648;28;20227;-83
2022/12/19 03:46:47;;;;;;;70.77;51.10;;;;;;;;;;5061904;28;20288;-83
2022/12/19 03:49:17;;;;;;;66.70;44.87;;;;;;;;;;5095093;28;20219;-82
2022/12/19 03:51:48;;;;;;;70.97;54.40;;;;;;;;;;5089634;28;20258;-82
2022/12/19 03:54:24;;;;;;;58.80;42.90;;;;;;;;;;5070434;28;20204;-83
2022/12/19 03:56:57;;;;;;;75.17;54.27;;;;;;;;;;5064708;28;20249;-82
2022/12/19 03:59:30;;;;;;;69.10;54.67;;;;;;;;;;5075856;28;20199;-82
2022/12/19 04:01:59;;;;;;;69.17;59.50;;;;;;;;;;5073807;28;20196;-82
2022/12/19 04:04:30;;;;;;;72.97;49.93;;;;;;;;;;5070803;28;20226;-82
2022/12/19 04:06:59;;;;;;;67.70;42.73;;;;;;;;;;5075946;28;20210;-82
2022/12/19 04:09:27;;;;;;;64.37;44.63;;;;;;;;;;5076819;28;20197;-82
2022/12/19 04:11:59;;;;;;;65.43;50.13;;;;;;;;;;5073378;28;20299;-81
2022/12/19 04:14:29;;;;;;;57.70;39.63;;;;;;;;;;5080802;28;20201;-82
2022/12/19 04:17:02;;;;;;;57.57;49.27;;;;;;;;;;5094225;28;20212;-82
2022/12/19 04:19:34;;;;;;;58.13;48.00;;;;;;;;;;5076194;28;20203;-82
2022/12/19 04:22:12;;;;;;;46.63;38.63;;;;;;;;;;5074947;28;20257;-82
2022/12/19 04:24:41;;;;;;;52.00;42.00;;;;;;;;;;5076394;28;20235;-82
2022/12/19 04:27:11;;;;;;;48.50;36.27;;;;;;;;;;5076332;28;20200;-82
2022/12/19 04:29:40;;;;;;;53.53;38.13;;;;;;;;;;5094174;28;20189;-82
2022/12/19 04:32:09;;;;;;;46.37;33.57;;;;;;;;;;5075597;28;20239;-81
2022/12/19 04:34:39;;;;;;;49.77;30.03;;;;;;;;;;5093666;28;20232;-82
2022/12/19 04:37:11;;;;;;;48.57;39.97;;;;;;;;;;5086250;28;20280;-82
2022/12/19 04:39:39;;;;;;;54.20;38.77;;;;;;;;;;5075780;28;20208;-82
2022/12/19 04:42:08;;;;;;;46.50;30.80;;;;;;;;;;5065705;28;20261;-82
2022/12/19 04:44:36;;;;;;;45.63;37.13;;;;;;;;;;5056222;28;20197;-82
2022/12/19 04:47:05;;;;;;;37.60;26.37;;;;;;;;;;5064380;28;20236;-83
2022/12/19 04:49:33;;;;;;;43.40;37.97;;;;;;;;;;5075985;28;20205;-83
2022/12/19 04:52:03;;;;;;;41.73;31.37;;;;;;;;;;5093100;28;20245;-82
2022/12/19 04:54:32;;;;;;;42.23;28.83;;;;;;;;;;5093589;28;20254;-82
2022/12/19 04:57:01;;;;;;;43.13;26.30;;;;;;;;;;5065928;28;20210;-82
2022/12/19 04:59:30;;;;;;;46.17;34.47;;;;;;;;;;5056006;28;20194;-82
2022/12/19 05:01:58;;;;;;;49.43;35.60;;;;;;;;;;5085977;28;20212;-82
2022/12/19 05:04:27;;;;;;;40.33;29.23;;;;;;;;;;5075500;28;20221;-83
2022/12/19 05:06:56;;;;;;;51.13;35.10;;;;;;;;;;5075176;28;20197;-82
2022/12/19 05:09:27;;;;;;;41.23;33.83;;;;;;;;;;5075630;28;20200;-83
2022/12/19 05:11:55;;;;;;;35.67;25.80;;;;;;;;;;5092611;28;20287;-83
2022/12/19 05:14:24;;;;;;;47.17;38.87;;;;;;;;;;5062194;28;20280;-83
2022/12/19 05:16:52;;;;;;;46.90;41.80;;;;;;;;;;5075252;28;20197;-83
2022/12/19 05:19:28;;;;;;;36.97;24.33;;;;;;;;;;5055673;28;20292;-83
2022/12/19 05:21:56;;;;;;;43.73;33.43;;;;;;;;;;5068244;28;20283;-83
2022/12/19 05:24:26;;;;;;;45.57;37.93;;;;;;;;;;5074689;28;20238;-83
2022/12/19 05:26:54;;;;;;;41.97;32.90;;;;;;;;;;5072919;28;20200;-83
2022/12/19 05:29:23;;;;;;;44.03;28.40;;;;;;;;;;5075283;28;20192;-83
2022/12/19 05:31:51;;;;;;;39.03;24.47;;;;;;;;;;5070603;28;20216;-82
2022/12/19 05:34:20;;;;;;;46.90;41.53;;;;;;;;;;5085795;28;20200;-83
2022/12/19 05:36:48;;;;;;;46.83;38.03;;;;;;;;;;5060600;28;20193;-83
2022/12/19 05:39:17;;;;;;;47.30;33.30;;;;;;;;;;5092984;28;20224;-83
2022/12/19 05:41:47;;;;;;;46.30;36.07;;;;;;;;;;5061790;28;20246;-83
2022/12/19 05:44:16;;;;;;;49.90;39.17;;;;;;;;;;5075098;28;20197;-83
2022/12/19 05:46:45;;;;;;;49.87;38.73;;;;;;;;;;5069676;28;20205;-83
2022/12/19 05:49:13;;;;;;;47.13;33.33;;;;;;;;;;5085528;28;20197;-83
2022/12/19 05:51:41;;;;;;;47.70;34.37;;;;;;;;;;5066942;28;20219;-83
2022/12/19 05:54:10;;;;;;;46.70;32.27;;;;;;;;;;5074812;28;20197;-83
2022/12/19 05:56:38;;;;;;;39.13;26.93;;;;;;;;;;5091714;28;20250;-83
2022/12/19 05:59:08;;;;;;;50.23;36.40;;;;;;;;;;5090912;28;20258;-81
2022/12/19 06:01:36;;;;;;;46.17;35.90;;;;;;;;;;5055266;28;20202;-80
2022/12/19 06:04:06;;;;;;;38.87;28.73;;;;;;;;;;5056309;28;20222;-80
2022/12/19 06:06:35;;;;;;;53.30;37.33;;;;;;;;;;5066033;28;20201;-80
2022/12/19 06:09:03;;;;;;;45.57;34.10;;;;;;;;;;5070381;28;20197;-80
2022/12/19 06:11:31;;;;;;;49.77;36.37;;;;;;;;;;5088657;28;20204;-80
2022/12/19 06:14:00;;;;;;;39.23;30.53;;;;;;;;;;5065643;28;20189;-80
2022/12/19 06:16:29;;;;;;;45.60;35.83;;;;;;;;;;5062763;28;20193;-80
2022/12/19 06:18:58;;;;;;;46.00;32.47;;;;;;;;;;5083547;28;20220;-80
2022/12/19 06:21:26;;;;;;;45.47;39.80;;;;;;;;;;5075788;28;20189;-80
2022/12/19 06:23:55;;;;;;;45.73;36.23;;;;;;;;;;5091997;28;20225;-79
2022/12/19 06:26:24;;;;;;;25.37;16.37;;;;;;;;;;5059206;28;20194;-82
2022/12/19 06:28:53;;;;;;;45.93;33.70;;;;;;;;;;5076149;28;20246;-82
2022/12/19 06:31:23;;;;;;;42.83;35.10;;;;;;;;;;5075195;28;20415;-81
2022/12/19 06:33:53;;;;;;;44.23;39.17;;;;;;;;;;5072124;28;20194;-81
2022/12/19 06:36:22;;;;;;;47.23;35.80;;;;;;;;;;5070237;28;20197;-82
2022/12/19 06:38:51;;;;;;;38.67;27.10;;;;;;;;;;5072118;28;20236;-82
2022/12/19 06:44:07;;;;;;;39.10;30.23;;;;;;;;;;5062018;28;20240;-82
2022/12/19 06:46:36;;;;;;;40.57;33.43;;;;;;;;;;5064895;28;20197;-82
2022/12/19 06:49:06;;;;;;;42.33;34.53;;;;;;;;;;5078218;28;20242;-82
2022/12/19 06:51:35;;;;;;;44.30;30.23;;;;;;;;;;5077616;28;20201;-82
2022/12/19 06:54:03;;;;;;;40.10;36.00;;;;;;;;;;5077605;28;20208;-83
2022/12/19 06:56:34;;;;;;;25.23;18.10;;;;;;;;;;5076278;28;20223;-82
2022/12/19 06:59:03;;;;;;;37.20;31.47;;;;;;;;;;5092374;28;20240;-82
2022/12/19 07:01:42;;;;;;;34.57;26.50;;;;;;;;;;5078273;28;20189;-81
2022/12/19 07:04:15;;;;;;;37.30;31.17;;;;;;;;;;5076188;28;20228;-82
2022/12/19 07:06:43;;;;;;;30.07;24.50;;;;;;;;;;5076423;28;20205;-82
2022/12/19 07:09:17;;;;;;;39.90;35.90;;;;;;;;;;5082366;28;20189;-82
2022/12/19 07:11:45;;;;;;;31.90;26.40;;;;;;;;;;5067689;28;20198;-81
2022/12/19 07:14:13;;;;;;;37.63;34.23;;;;;;;;;;5074791;28;20243;-81
2022/12/19 07:16:42;;;;;;;21.77;15.83;;;;;;;;;;5077836;28;20224;-81
2022/12/19 07:19:10;;;;;;;35.63;29.43;;;;;;;;;;5095470;28;20286;-81
2022/12/19 07:21:40;;;;;;;30.83;27.13;;;;;;;;;;5089125;28;20197;-81
2022/12/19 07:24:09;;;;;;;33.50;30.00;;;;;;;;;;5095383;28;20237;-81
2022/12/19 07:26:38;;;;;;;33.47;29.97;;;;;;;;;;5074470;28;20208;-81
2022/12/19 07:29:06;;;;;;;32.57;29.37;;;;;;;;;;5082629;28;20205;-82
2022/12/19 07:31:35;;;;;;;30.50;27.63;;;;;;;;;;5095403;28;20292;-83
2022/12/19 07:34:04;;;;;;;25.70;22.63;;;;;;;;;;5082573;28;20224;-82
2022/12/19 07:36:32;;;;;;;30.43;27.13;;;;;;;;;;5075492;28;20197;-80
2022/12/19 07:39:02;;;;;;;28.87;25.83;;;;;;;;;;5069210;28;20236;-80
2022/12/19 07:41:31;;;;;;;19.87;17.27;;;;;;;;;;5059568;28;20227;-80
2022/12/19 07:43:59;;;;;;;25.43;22.67;;;;;;;;;;5076668;28;20221;-80
2022/12/19 07:46:29;;;;;;;31.07;28.13;;;;;;;;;;5075715;28;20201;-80
2022/12/19 07:48:58;;;;;;;31.37;28.37;;;;;;;;;;5085360;28;20206;-80
2022/12/19 07:51:27;;;;;;;27.50;24.13;;;;;;;;;;5072343;28;20197;-80
2022/12/19 07:53:55;;;;;;;29.07;26.17;;;;;;;;;;5076990;28;20219;-81
2022/12/19 07:56:25;;;;;;;20.77;18.43;;;;;;;;;;5094569;28;20201;-81
2022/12/19 07:58:54;;;;;;;24.90;21.43;;;;;;;;;;5073870;28;20243;-81
2022/12/19 08:01:22;;;;;;;26.67;23.93;;;;;;;;;;5090461;28;20203;-81
2022/12/19 08:03:55;;;;;;;24.23;20.97;;;;;;;;;;5069483;28;20224;-81
2022/12/19 08:06:23;;;;;;;22.13;19.77;;;;;;;;;;5075092;28;20239;-82
2022/12/19 08:08:52;;;;;;;22.30;19.27;;;;;;;;;;5076288;28;20185;-82
2022/12/19 08:11:26;;;;;;;25.00;22.60;;;;;;;;;;5076310;28;20251;-80
2022/12/19 08:13:55;;;;;;;16.90;12.30;;;;;;;;;;5094613;28;20288;-81
2022/12/19 08:16:25;;;;;;;23.10;20.90;;;;;;;;;;5073429;28;20235;-81
2022/12/19 08:18:54;;;;;;;22.77;20.47;;;;;;;;;;5094483;28;20209;-81
2022/12/19 08:21:23;;;;;;;24.43;21.93;;;;;;;;;;5071266;28;20228;-82
2022/12/19 08:23:52;;;;;;;20.67;18.50;;;;;;;;;;5075826;28;20205;-81
2022/12/19 08:26:23;;;;;;;22.13;19.77;;;;;;;;;;5076488;28;20220;-81
2022/12/19 08:28:53;;;;;;;18.87;15.97;;;;;;;;;;5058641;28;20190;-81
2022/12/19 08:31:24;;;;;;;19.67;17.70;;;;;;;;;;5067545;28;20196;-81
2022/12/19 08:33:53;;;;;;;18.03;16.13;;;;;;;;;;5075413;28;20268;-81
2022/12/19 08:36:22;;;;;;;19.20;17.40;;;;;;;;;;5075130;28;20209;-81
2022/12/19 08:38:50;;;;;;;17.73;16.00;;;;;;;;;;5056478;28;20247;-82
2022/12/19 08:41:19;;;;;;;15.80;13.50;;;;;;;;;;5056538;28;20191;-81
2022/12/19 08:43:49;;;;;;;19.77;17.80;;;;;;;;;;5093232;28;20197;-82
2022/12/19 08:46:17;;;;;;;19.27;17.50;;;;;;;;;;5076074;28;20205;-83
2022/12/19 08:48:47;;;;;;;17.83;15.53;;;;;;;;;;5085509;28;20189;-83
2022/12/19 08:51:16;;;;;;;18.97;17.07;;;;;;;;;;5057813;28;20197;-82
2022/12/19 08:53:45;;;;;;;12.93;8.43;;;;;;;;;;5076314;28;20193;-82
2022/12/19 08:56:14;;;;;;;14.87;13.00;;;;;;;;;;5079525;28;20330;-82
2022/12/19 08:58:43;;;;;;;17.40;15.70;;;;;;;;;;5076051;28;20238;-82
2022/12/19 09:01:14;;;;;;;17.67;15.87;;;;;;;;;;5074816;28;20197;-82
2022/12/19 09:03:43;;;;;;;17.47;15.77;;;;;;;;;;5093526;28;20221;-82
2022/12/19 09:06:33;;;;;;;14.73;13.10;;;;;;;;;;5073641;28;20197;-82
2022/12/19 09:09:03;;;;;;;18.97;17.37;;;;;;;;;;5088386;28;20212;-82
2022/12/19 09:11:31;;;;;;;15.40;12.73;;;;;;;;;;5088650;28;20197;-82
2022/12/19 09:14:03;;;;;;;17.50;15.90;;;;;;;;;;5067083;28;20201;-84
2022/12/19 09:16:32;;;;;;;18.03;16.33;;;;;;;;;;5072306;28;20204;-83
2022/12/19 09:19:00;;;;;;;16.53;13.53;;;;;;;;;;5065243;28;20205;-84
2022/12/19 09:21:29;;;;;;;14.77;13.10;;;;;;;;;;5069794;28;20222;-83
2022/12/19 09:24:01;;;;;;;14.77;13.27;;;;;;;;;;5065383;28;20220;-83
2022/12/19 09:26:36;;;;;;;16.77;15.07;;;;;;;;;;5057496;28;20197;-83
2022/12/19 09:29:06;;;;;;;16.33;14.83;;;;;;;;;;5087299;28;20280;-80
2022/12/19 09:31:48;;;;;;;13.43;12.07;;;;;;;;;;5083714;28;20213;-83
2022/12/19 09:34:24;;;;;;;15.73;14.07;;;;;;;;;;5060776;28;20236;-83
2022/12/19 09:37:06;;;;;;;14.50;13.07;;;;;;;;;;5065347;28;20320;-84
2022/12/19 09:39:36;;;;;;;10.87;9.67;;;;;;;;;;5065662;28;20205;-84
2022/12/19 09:42:15;;;;;;;13.07;11.70;;;;;;;;;;5084474;28;20201;-83
2022/12/19 09:44:51;;;;;;;14.03;12.80;;;;;;;;;;5064472;28;20212;-84
2022/12/19 09:47:23;;;;;;;14.07;12.57;;;;;;;;;;5064274;28;20209;-84
2022/12/19 09:49:52;;;;;;;11.90;10.67;;;;;;;;;;5069762;28;20196;-84
2022/12/19 09:52:24;;;;;;;13.70;12.30;;;;;;;;;;5084510;28;20258;-84
2022/12/19 09:54:58;;;;;;;10.77;9.60;;;;;;;;;;5086323;28;20202;-84
2022/12/19 09:57:41;;;;;;;12.90;11.70;;;;;;;;;;5084682;28;20198;-84
2022/12/19 10:00:12;;;;;;;9.40;8.33;;;;;;;;;;5089505;28;20230;-83
2022/12/19 10:02:43;;;;;;;14.33;13.17;;;;;;;;;;5068667;28;20249;-83
2022/12/19 10:05:15;;;;;;;12.30;11.30;;;;;;;;;;5085493;28;20221;-83
2022/12/19 10:08:03;;;;;;;12.27;10.93;;;;;;;;;;5085523;28;20199;-83
2022/12/19 10:10:43;;;;;;;12.47;9.93;;;;;;;;;;5088595;28;20224;-84
2022/12/19 10:13:36;;;;;;;12.80;11.50;;;;;;;;;;5088852;28;20220;-84
2022/12/19 10:16:08;;;;;;;9.60;8.80;;;;;;;;;;5065061;28;20274;-83
2022/12/19 10:18:40;;;;;;;13.43;12.13;;;;;;;;;;5075372;28;20212;-84
2022/12/19 10:21:10;;;;;;;11.63;10.53;;;;;;;;;;5068762;28;20249;-83
2022/12/19 10:23:48;;;;;;;9.83;8.93;;;;;;;;;;5071112;28;20267;-83
2022/12/19 10:26:20;;;;;;;13.10;11.80;;;;;;;;;;5070009;28;20212;-83
2022/12/19 10:28:59;;;;;;;10.17;9.20;;;;;;;;;;5084581;28;20198;-83
2022/12/19 10:31:32;;;;;;;13.33;12.13;;;;;;;;;;5069813;28;20211;-83
2022/12/19 10:34:03;;;;;;;13.37;11.50;;;;;;;;;;5082638;28;20204;-82
2022/12/19 10:36:32;;;;;;;10.23;9.23;;;;;;;;;;5089367;28;20224;-81
2022/12/19 10:39:26;;;;;;;11.17;10.13;;;;;;;;;;5085203;28;20212;-82
2022/12/19 10:42:01;;;;;;;12.30;11.17;;;;;;;;;;5085276;28;20218;-82
2022/12/19 10:44:31;;;;;;;12.63;11.53;;;;;;;;;;5071262;28;20229;-83
2022/12/19 10:46:59;;;;;;;12.17;10.77;;;;;;;;;;5068584;28;20202;-83
2022/12/19 10:49:31;;;;;;;12.10;10.90;;;;;;;;;;5068381;28;20204;-83
2022/12/19 10:52:00;;;;;;;10.40;9.37;;;;;;;;;;5090512;28;20205;-83
2022/12/19 10:54:38;;;;;;;7.37;6.67;;;;;;;;;;5089412;28;20257;-82
2022/12/19 10:57:24;;;;;;;9.27;8.33;;;;;;;;;;5054981;28;20210;-82
2022/12/19 10:59:56;;;;;;;9.30;8.50;;;;;;;;;;5063032;28;20290;-82
2022/12/19 11:02:30;;;;;;;9.87;8.87;;;;;;;;;;5069466;28;20221;-83
2022/12/19 11:04:59;;;;;;;9.20;8.30;;;;;;;;;;5070032;28;20221;-83
2022/12/19 11:07:28;;;;;;;8.67;7.97;;;;;;;;;;5070492;28;20204;-82
2022/12/19 11:09:56;;;;;;;10.70;9.57;;;;;;;;;;5070344;28;20246;-83
2022/12/19 11:12:53;;;;;;;10.33;8.43;;;;;;;;;;5058315;28;20280;-82
2022/12/19 11:15:47;;;;;;;8.37;5.60;;;;;;;;;;5082062;28;20250;-82
2022/12/19 11:18:36;;;;;;;7.83;7.03;;;;;;;;;;5085742;28;20202;-82
2022/12/19 11:21:27;;;;;;;7.57;6.80;;;;;;;;;;5068478;28;20225;-83
2022/12/19 11:24:22;;;;;;;10.63;8.27;;;;;;;;;;5066189;28;20240;-83
2022/12/19 11:27:30;;;;;;;10.10;9.30;;;;;;;;;;5068230;28;20206;-82
2022/12/19 11:30:23;;;;;;;9.40;8.50;;;;;;;;;;5085098;28;20204;-83
2022/12/19 11:33:14;;;;;;;9.57;8.67;;;;;;;;;;5069132;28;20207;-82
2022/12/19 11:35:47;;;;;;;9.37;8.37;;;;;;;;;;5071830;28;20216;-81
2022/12/19 11:38:18;;;;;;;9.53;7.47;;;;;;;;;;5061605;28;20195;-82
2022/12/19 11:40:51;;;;;;;10.57;9.60;;;;;;;;;;5084795;28;20242;-82
2022/12/19 11:43:26;;;;;;;8.03;7.23;;;;;;;;;;5079485;28;20221;-82
2022/12/19 11:46:18;;;;;;;8.43;7.63;;;;;;;;;;5068470;28;20194;-82
2022/12/19 11:48:52;;;;;;;6.10;5.03;;;;;;;;;;5067373;28;20209;-80
2022/12/19 11:51:24;;;;;;;10.20;8.20;;;;;;;;;;5072367;28;20200;-80
2022/12/19 11:54:01;;;;;;;10.10;9.10;;;;;;;;;;5081460;28;20229;-82
2022/12/19 11:56:30;;;;;;;9.83;8.90;;;;;;;;;;5085641;28;20289;-81
2022/12/19 11:59:00;;;;;;;8.63;7.73;;;;;;;;;;5058612;28;20211;-82
2022/12/19 12:01:42;;;;;;;8.13;7.37;;;;;;;;;;5066134;28;20220;-81
2022/12/19 12:04:27;;;;;;;9.77;8.03;;;;;;;;;;5063133;28;20214;-81
2022/12/19 12:06:56;;;;;;;8.60;7.67;;;;;;;;;;5064469;28;20214;-80
2022/12/19 12:09:33;;;;;;;7.20;6.30;;;;;;;;;;5084318;28;20210;-81
2022/12/19 12:12:23;;;;;;;9.73;8.83;;;;;;;;;;5065180;28;20210;-81
2022/12/19 12:15:23;;;;;;;8.70;8.00;;;;;;;;;;5062542;28;20251;-81
2022/12/19 12:18:18;;;;;;;8.53;7.60;;;;;;;;;;5067546;28;20211;-80
2022/12/19 12:21:08;;;;;;;10.20;8.90;;;;;;;;;;5085800;28;20303;-80
2022/12/19 12:24:03;;;;;;;11.93;9.70;;;;;;;;;;5066220;28;20207;-82
2022/12/19 12:26:58;;;;;;;10.07;8.53;;;;;;;;;;5059294;28;20281;-80
2022/12/19 12:29:50;;;;;;;12.17;10.13;;;;;;;;;;5079531;28;20293;-81
2022/12/19 12:32:48;;;;;;;10.17;9.20;;;;;;;;;;5059728;28;20225;-80
2022/12/19 12:35:39;;;;;;;11.13;10.13;;;;;;;;;;5062916;28;20206;-81
2022/12/19 12:38:33;;;;;;;10.73;9.77;;;;;;;;;;5066081;28;20214;-80
2022/12/19 12:41:10;;;;;;;10.17;9.20;;;;;;;;;;5082383;28;20222;-80
2022/12/19 12:43:47;;;;;;;11.00;9.73;;;;;;;;;;5065687;28;20198;-81
2022/12/19 12:46:17;;;;;;;8.47;7.67;;;;;;;;;;5085626;28;20198;-81
2022/12/19 12:48:48;;;;;;;9.27;8.40;;;;;;;;;;5078145;28;20293;-81
2022/12/19 12:51:18;;;;;;;10.57;9.57;;;;;;;;;;5058177;28;20247;-82
2022/12/19 12:53:48;;;;;;;11.80;8.93;;;;;;;;;;5064745;28;20299;-80
2022/12/19 12:56:18;;;;;;;5.50;4.73;;;;;;;;;;5057989;28;20307;-81
2022/12/19 12:59:07;;;;;;;9.73;8.83;;;;;;;;;;5063632;28;20251;-81
2022/12/19 13:01:37;;;;;;;10.40;9.40;;;;;;;;;;5064652;28;20223;-80
2022/12/19 13:04:07;;;;;;;10.07;9.23;;;;;;;;;;5080705;28;20232;-81
2022/12/19 13:06:38;;;;;;;9.20;8.23;;;;;;;;;;5066223;28;20316;-81
2022/12/19 13:09:20;;;;;;;10.60;9.50;;;;;;;;;;5064099;28;20206;-81
2022/12/19 13:14:49;;;;;;;12.37;11.37;;;;;;;;;;5067326;28;20203;-81
2022/12/19 13:17:25;;;;;;;12.73;11.57;;;;;;;;;;5070851;28;20206;-81
2022/12/19 13:19:55;;;;;;;9.20;8.27;;;;;;;;;;5073814;28;20288;-81
2022/12/19 13:22:39;;;;;;;10.40;9.50;;;;;;;;;;5065486;28;20229;-82
2022/12/19 13:25:35;;;;;;;10.67;9.60;;;;;;;;;;5029981;28;1093918;-82
2022/12/19 13:28:14;;;;;;;9.30;8.40;;;;;;;;;;5037133;28;20217;-81
2022/12/19 13:31:14;;;;;;;9.03;8.13;;;;;;;;;;5066108;28;20189;-82
2022/12/19 13:34:08;;;;;;;8.50;7.80;;;;;;;;;;5064754;28;20287;-81
2022/12/19 13:36:49;;;;;;;7.10;6.40;;;;;;;;;;5063842;28;20208;-82
2022/12/19 13:39:43;;;;;;;8.50;7.80;;;;;;;;;;5080906;28;20302;-80
2022/12/19 13:45:39;;;;;;;10.87;5.87;;;;;;;;;;5065013;28;20297;-83
2022/12/19 13:48:13;;;;;;;6.70;5.83;;;;;;;;;;5064522;28;20208;-82
2022/12/19 13:50:42;;;;;;;9.33;8.47;;;;;;;;;;5065858;28;20203;-82
2022/12/19 13:53:15;;;;;;;7.27;6.50;;;;;;;;;;5085301;28;20195;-83
2022/12/19 13:55:45;;;;;;;8.50;7.00;;;;;;;;;;5064800;28;20211;-83
2022/12/19 13:58:21;;;;;;;2.93;2.63;;;;;;;;;;5088338;28;20205;-84
2022/12/19 14:00:58;;;;;;;6.97;6.33;;;;;;;;;;5062921;28;20202;-82
2022/12/19 14:03:33;;;;;;;7.00;6.37;;;;;;;;;;5066073;28;20222;-83
2022/12/19 14:06:05;;;;;;;7.43;6.83;;;;;;;;;;5083001;28;20207;-82
2022/12/19 14:08:47;;;;;;;6.40;5.90;;;;;;;;;;5083864;28;20289;-83
2022/12/19 14:11:40;;;;;;;6.20;5.60;;;;;;;;;;5084862;28;20211;-83
2022/12/19 14:17:16;;;;;;;4.90;4.40;;;;;;;;;;5066329;28;20215;-84
2022/12/19 14:19:45;;;;;;;6.50;5.77;;;;;;;;;;5062290;28;20211;-84
2022/12/19 14:22:20;;;;;;;6.43;5.83;;;;;;;;;;5064379;28;20224;-84
2022/12/19 14:24:54;;;;;;;7.67;6.90;;;;;;;;;;5060061;28;20232;-86
2022/12/19 14:27:45;;;;;;;6.23;5.63;;;;;;;;;;5067147;28;20202;-84
2022/12/19 14:30:36;;;;;;;6.43;5.70;;;;;;;;;;5064953;28;20218;-83
2022/12/19 14:33:06;;;;;;;9.13;6.00;;;;;;;;;;5062232;28;20212;-84
2022/12/19 14:35:55;;;;;;;6.67;6.03;;;;;;;;;;5068128;28;20224;-85
2022/12/19 14:38:46;;;;;;;6.43;5.67;;;;;;;;;;5068096;28;20255;-85
2022/12/19 14:44:44;;;;;;;6.47;5.87;;;;;;;;;;5089703;28;20207;-85
2022/12/19 14:47:34;;;;;;;6.60;6.00;;;;;;;;;;5082590;28;20245;-85
2022/12/19 14:50:31;;;;;;;5.77;4.70;;;;;;;;;;5069841;28;20206;-87
2022/12/19 14:53:20;;;;;;;9.10;7.87;;;;;;;;;;5072098;28;20225;-86
2022/12/19 14:56:10;;;;;;;8.20;7.50;;;;;;;;;;5072264;28;20205;-85
2022/12/19 14:58:59;;;;;;;5.57;4.67;;;;;;;;;;5068021;28;20210;-84
2022/12/19 15:01:34;;;;;;;8.13;7.33;;;;;;;;;;5070623;28;20204;-84
2022/12/19 15:04:17;;;;;;;7.30;6.57;;;;;;;;;;5085547;28;20266;-83
2022/12/19 15:07:07;;;;;;;7.93;7.13;;;;;;;;;;5069853;28;20277;-84
2022/12/19 15:09:45;;;;;;;6.83;6.23;;;;;;;;;;5069456;28;20202;-85
2022/12/19 15:15:44;;;;;;;7.00;6.30;;;;;;;;;;5065423;28;20202;-84
2022/12/19 15:18:19;;;;;;;6.13;5.53;;;;;;;;;;5064872;28;20202;-85
2022/12/19 15:20:48;;;;;;;7.27;6.67;;;;;;;;;;5066639;28;20205;-86
2022/12/19 15:23:16;;;;;;;6.43;5.87;;;;;;;;;;5065452;28;20247;-83
2022/12/19 15:25:49;;;;;;;5.77;5.10;;;;;;;;;;5064814;28;20237;-86